Onion Creek, California Weather observations

Data are for observation ending at time listed.
 Day   Time    Ave.   Ave.  Ave.  Vector   Max.   Stn.    Total    Solar   Ave.   Snow 
  of    of     Air    Rel.  Wind   Wind    Wind   Baro.  Precip.   Rad.    Soil   Depth
Year   Day     Temp.  Hum.  Speed  Dir.    Gust   Pres.                    Temp.       
2015   (PST)    F      %     mph   deg.    mph     mb.     in.     W/m2     F      in. 
---------------------------------------------------------------------------------------  
  24   19:40   48.0    37    3.4    47      9.3   837.7   34.48       0    33.7   999.0
  24   19:50   48.2    37    4.6    44     11.7   837.7   34.48       0    33.7   999.0
  24   20:00   48.0    37    3.3    60     11.1   837.7   34.52       0    33.7   999.0
  24   20:10   47.6    38    3.1    78      8.1   837.7   34.52       0    33.7   999.0
  24   20:20   47.7    37    4.0    44     13.6   837.8   34.52       0    33.7   999.0
  24   20:30   47.7    38    4.1    41     15.6   837.8   34.48       0    33.7   999.0
  24   20:40   48.6    36    4.0    49     12.9   837.9   34.52       0    33.7   999.0
  24   20:50   48.2    37    3.3    28     12.3   838.1   34.52       0    33.7   999.0
  24   21:00   47.9    38    2.9    50      8.4   838.2   34.52       0    33.7   999.0
  24   21:10   47.9    38    3.5    21      8.0   838.3   34.48       0    33.7   999.0
  24   21:20   47.4    39    2.6    44      8.0   838.4   34.52       0    33.7   999.0
  24   21:30   47.2    39    3.2    24     11.1   838.6   34.52       0    33.7   999.0
  24   21:40   47.0    40    2.8    52      9.8   838.5   34.52       0    33.7   999.0
  24   21:50   46.9    40    3.8    47     12.3   838.5   34.52       0    33.7   999.0
  24   22:00   46.8    41    3.5    35     10.2   838.5   34.52       0    33.7   999.0
  24   22:10   46.5    41    3.4    33      9.6   838.5   34.52       0    33.7   999.0
  24   22:20   46.9    40    4.0    23     10.3   838.6   34.52       0    33.7   999.0
  24   22:30   46.3    43    2.4    37      7.6   838.7   34.52       0    33.7   999.0
  24   22:40   45.5    44    2.3    63      7.4   838.8   34.52       0    33.7   999.0
  24   22:50   45.9    43    2.9    46      8.4   838.9   34.52       0    33.7   999.0
  24   23:00   45.7    44    2.5    51      6.1   839.1   34.52       0    33.7   999.0
  24   23:10   45.6    44    3.0    39      7.3   839.2   34.52       0    33.7   999.0
  24   23:20   45.2    45    2.6    62      6.1   839.3   34.52       0    33.7   999.0
  24   23:30   44.8    47    1.8    36      4.0   839.4   34.52       0    33.7   999.0
  24   23:40   43.1    52    1.7    41      4.4   839.4   34.48       0    33.7   999.0
  24   23:50   43.3    50    2.2    50      8.0   839.5   34.52       0    33.7   999.0
  25    0:00   42.9    52    2.1    48      5.9   839.4   34.52       0    33.7   999.0
  25    0:10   43.2    52    2.5    41      5.5   839.3   34.48       0    33.7   999.0
  25    0:20   44.1    50    2.7    47      8.5   839.3   34.48       0    33.7   999.0
  25    0:30   42.6    56    2.6    40      6.9   839.2   34.52       0    33.7   999.0
  25    0:40   42.4    54    2.5    31      6.7   839.2   34.52       0    33.7   999.0
  25    0:50   43.9    49    3.1    39      9.9   839.1   34.52       0    33.6   999.0
  25    1:00   44.0    51    2.7    34      6.9   839.1   34.52       0    33.6   999.0
  25    1:10   43.8    51    2.8    51      6.7   839.1   34.52       0    33.7   999.0
  25    1:20   45.5    47    2.5    20     12.9   839.1   34.52       0    33.6   999.0
  25    1:30   46.2    46    4.5    17     11.8   839.1   34.52       0    33.6   999.0
  25    1:40   47.4    44    3.9    15     11.2   839.2   34.52       0    33.6   999.0
  25    1:50   47.7    44    3.1    19     10.0   839.2   34.52       0    33.6   999.0
  25    2:00   46.8    47    3.4    24     10.8   839.3   34.52       0    33.6   999.0
  25    2:10   47.5    45    4.1    18     11.0   839.3   34.52       0    33.6   999.0
  25    2:20   47.3    46    3.6    26     10.1   839.2   34.52       0    33.6   999.0
  25    2:30   46.9    47    3.3    18      9.3   839.1   34.52       0    33.6   999.0
  25    2:40   47.0    47    3.7    19     12.5   839.1   34.52       0    33.6   999.0
  25    2:50   48.3    44    3.8    33     10.3   839.2   34.52       0    33.6   999.0
  25    3:00   48.1    44    2.7    45      9.8   839.4   34.52       0    33.6   999.0
  25    3:10   47.9    45    3.0    26     10.4   839.4   34.52       0    33.6   999.0
  25    3:20   47.7    46    1.9    76      9.4   839.4   34.52       0    33.6   999.0
  25    3:30   47.2    47    1.6   110      6.4   839.4   34.52       0    33.6   999.0
  25    3:40   46.7    48    2.5    54      7.9   839.5   34.48       0    33.6   999.0
  25    3:50   46.7    49    2.7    46      7.1   839.4   34.52       0    33.6   999.0
  25    4:00   45.3    53    2.1    38      6.0   839.3   34.52       0    33.7   999.0
  25    4:10   44.8    54    2.8    40      6.4   839.3   34.52       0    33.7   999.0
  25    4:20   44.7    54    3.3    37      6.9   839.2   34.52       0    33.7   999.0
  25    4:30   44.6    55    3.4    35      7.9   839.0   34.52       0    33.6   999.0
  25    4:40   44.0    57    3.6    38      8.5   838.9   34.52       0    33.6   999.0
  25    4:50   43.1    59    3.4    36      7.8   838.8   34.52       0    33.6   999.0
  25    5:00   43.4    58    3.2    31      6.3   838.7   34.48       0    33.6   999.0
  25    5:10   43.3    58    3.0    38      6.3   838.6   34.52       0    33.6   999.0
  25    5:20   44.2    55    3.5    29     11.0   838.6   34.52       0    33.6   999.0
  25    5:30   44.6    54    3.0    27      8.8   838.6   34.52       0    33.6   999.0
  25    5:40   45.1    53    3.1    37      7.5   838.5   34.52       0    33.6   999.0
  25    5:50   45.1    52    3.5    41      8.3   838.5   34.52       0    33.6   999.0
  25    6:00   46.2    49    3.5    34      7.7   838.5   34.48       0    33.6   999.0
  25    6:10   46.3    48    3.7    42      8.9   838.4   34.52       0    33.6   999.0
  25    6:20   47.0    46    3.5    34      7.5   838.3   34.55       0    33.6   999.0
  25    6:30   47.2    44    3.8    38      8.6   838.3   34.52       0    33.6   999.0
  25    6:40   47.7    42    3.6    53      7.2   838.3   34.52       0    33.6   999.0
  25    6:50   48.2    40    3.7    53     10.9   838.3   34.52       0    33.6   999.0
  25    7:00   48.4    40    3.7    41      9.4   838.4   34.52       0    33.6   999.0
  25    7:10   48.4    40    3.3    39      9.2   838.5   34.52       2    33.6   999.0
  25    7:20   47.7    42    2.9    27      7.1   838.5   34.55       4    33.6   999.0
  25    7:30   46.5    46    3.2    22      8.4   838.4   34.52       6    33.6   999.0
  25    7:40   45.0    50    3.5    34      7.6   838.3   34.52       9    33.6   999.0
  25    7:50   45.4    48    3.4    24      8.1   838.3   34.52      11    33.6   999.0
  25    8:00   45.5    49    2.9    26      5.5   838.2   34.52      12    33.6   999.0
  25    8:10   44.7    52    2.3    34      4.7   838.2   34.55      13    33.6   999.0
  25    8:20   44.5    53    2.9    37      8.6   838.2   34.55      13    33.6   999.0
  25    8:30   45.1    52    2.6    32      9.2   838.2   34.52      14    33.6   999.0
  25    8:40   44.8    53    2.5    48      5.3   838.2   34.55      14    33.6   999.0
  25    8:50   45.2    52    2.3    53      6.2   838.3   34.55      15    33.6   999.0
  25    9:00   44.9    54    2.5    61      5.8   838.4   34.52      17    33.6   999.0
  25    9:10   45.1    54    2.7    62      5.6   838.4   34.52      19    33.6   999.0
  25    9:20   45.3    55    2.4    60      4.7   838.3   34.52     105    33.6   999.0
  25    9:30   46.5    52    2.5    56      5.3   838.3   34.52     294    33.6   999.0
  25    9:40   49.3    45    2.6    36      5.1   838.4   34.55     411    33.6   999.0
  25    9:50   50.7    43    2.7    54      7.3   838.5   34.52     438    33.7   999.0
  25   10:00   52.8    38    1.1   111      3.8   838.5   34.55     463    33.7   999.0
  25   10:10   53.0    38    2.0    90      5.1   838.5   34.52     485    33.7   999.0
  25   10:20   55.2    34    2.9    56     11.9   838.6   34.52     505    33.7   999.0
  25   10:30   56.0    34    1.9    36      6.1   838.6   34.52     524    33.8   999.0
  25   10:40   56.1    33    2.8    43     10.3   838.5   34.55     541    33.8   999.0
  25   10:50   56.8    34    2.2    46      7.5   838.4   34.55     555    33.9   999.0
  25   11:00   57.7    32    1.7    90      4.6   838.3   34.58     568    33.9   999.0
  25   11:10   57.8    34    1.5    44      4.5   838.2   34.52     581    34.0   999.0
  25   11:20   58.2    33    2.4    27      6.7   838.1   34.55     594    34.1   999.0
  25   11:30   58.9    32    1.9    46      5.0   837.9   34.52     604    34.3   999.0
  25   11:40   61.1    29    1.6    23      4.2   837.9   34.52     610    34.4   999.0
  25   11:50   60.7    31    2.3    21      6.1   837.8   34.52     617    34.6   999.0
  25   12:00   61.4    27    2.0     4      4.9   837.7   34.55     621    34.8   999.0
  25   12:10   61.9    27    1.4   328      4.1   837.7   34.55     624    35.0   999.0
  25   12:20   61.6    25    2.0    34      8.2   837.6   34.52     623    35.2   999.0
  25   12:30   61.6    25    2.6   319      5.5   837.4   34.52     620    35.5   999.0
  25   12:40   61.9    26    2.1   351      5.5   837.3   34.52     617    35.8   999.0
  25   12:50   61.7    27    1.7   339      5.0   837.0   34.48     593    36.1   999.0
  25   13:00   61.1    28    1.4    43      4.2   836.8   34.52     225    36.3   999.0
  25   13:10   61.0    27    1.6    97      5.6   836.7   34.55     592    36.4   999.0
  25   13:20   61.8    26    2.2   359      6.1   836.6   34.55     587    36.7   999.0
  25   13:30   63.2    24    1.7   349      5.6   836.6   34.52     576    36.9   999.0
  25   13:40   63.3    22    2.0   189      4.0   836.5   34.55     562    37.1   999.0
  25   13:50   63.6    23    2.2   278      5.8   836.3   34.55     546    37.3   999.0
  25   14:00   62.9    22    2.2   185      4.6   836.3   34.52     383    37.5   999.0
  25   14:10   62.4    23    2.7   283      7.5   836.2   34.52     410    37.7   999.0
  25   14:20   61.9    24    1.9   278      7.0   836.2   34.52     492    37.9   999.0
  25   14:30   61.4    25    1.7   303      6.1   836.2   34.52     453    38.1   999.0
  25   14:40   61.0    24    1.4   197      4.8   836.1   34.52      95    38.2   999.0
  25   14:50   59.9    26    2.0   258      6.2   836.0   34.52      42    38.3   999.0
  25   15:00   61.1    24    2.7   271      7.5   835.9   34.52     194    38.4   999.0
  25   15:10   60.9    30    1.9   317      5.2   835.9   34.52     369    38.4   999.0
  25   15:20   60.7    31    1.2    27      4.2   835.9   34.52     340    38.4   999.0
  25   15:30   60.9    27    1.7    40      4.2   835.9   34.52     311    38.5   999.0
  25   15:40   61.4    26    2.3    22      9.1   835.8   34.48     282    38.5   999.0
  25   15:50   61.3    27    1.2    60      4.0   835.8   34.48     254    38.5   999.0
  25   16:00   61.0    27    1.9    22      4.5   835.8   34.48     224    38.6   999.0
  25   16:10   59.3    31    1.4    34      4.2   835.7   34.48     194    38.6   999.0
  25   16:20   57.9    35    1.5    41      3.3   835.8   34.48     133    38.6   999.0
  25   16:30   54.8    42    1.5    41      3.1   835.7   34.48      36    38.6   999.0
  25   16:40   52.9    47    1.4    41      3.1   835.7   34.45      44    38.6   999.0
  25   16:50   51.9    48    2.2    30      4.3   835.6   34.48      21    38.6   999.0
  25   17:00   50.5    51    1.8    30      3.4   835.6   34.48       9    38.6   999.0
  25   17:10   49.0    54    2.2    33      3.7   835.6   34.48       4    38.5   999.0
  25   17:20   48.1    55    2.4    36      3.4   835.6   34.45       3    38.5   999.0
  25   17:30   47.2    56    2.7    44      3.7   835.7   34.48       1    38.4   999.0
  25   17:40   46.8    55    2.8    46      4.2   835.6   34.48       0    38.4   999.0
  25   17:50   46.0    57    2.1    41      3.9   835.8   34.52       0    38.3   999.0
  25   18:00   45.5    56    3.0    35      4.2   835.8   34.52       0    38.2   999.0
  25   18:10   45.1    56    2.5    42      4.2   835.8   34.48       0    38.2   999.0
  25   18:20   44.8    57    2.1    36      4.7   835.8   34.52       0    38.1   999.0
  25   18:30   44.2    58    1.7    33      3.5   835.9   34.48       0    38.0   999.0
  25   18:40   44.0    58    2.1    41      3.6   835.9   34.48       0    38.0   999.0
  25   18:50   44.4    56    2.8    44      5.5   836.0   34.48       0    37.9   999.0
  25   19:00   45.4    52    2.5    66      4.5   836.0   34.52       0    37.8   999.0
  25   19:10   45.8    51    2.4    54      4.4   836.1   34.52       0    37.7   999.0
  25   19:20   45.4    52    2.8    48      6.3   836.2   34.48       0    37.7   999.0
  25   19:30   45.1    53    2.2    46      3.7   836.2   34.52       0    37.6   999.0

Return to Onion Creek graphs page.


Western Regional Climate Center,wrcc@dri.edu